Time;durP1;ratioP1;P1;durP2;ratioP2;P2;SDS_P1;SDS_P2;PMS_P1;PMS_P2;Temp;Humidity;BMP_temperature;BMP_pressure;BME280_temperature;BME280_humidity;BME280_pressure;Samples;Min_cycle;Max_cycle;Signal;HPM_P1;HPM_P2
2024/03/01 00:00:57;;;;;;;;;;;;;;;17.94;41.48;98488.63;10201469;28;837;-71
2024/03/01 00:05:53;;;;;;;;;;;;;;;17.94;41.73;98485.16;10202376;28;1894;-71
2024/03/01 00:10:49;;;;;;;;;;;;;;;17.93;41.68;98478.19;10202450;28;810;-71
2024/03/01 00:15:45;;;;;;;;;;;;;;;17.91;41.58;98478.28;10202850;28;770;-71
2024/03/01 00:20:41;;;;;;;;;;;;;;;17.91;41.55;98474.81;10202714;28;989;-71
2024/03/01 00:25:37;;;;;;;;;;;;;;;17.90;41.47;98466.06;10202913;28;1957;-71
2024/03/01 00:30:32;;;;;;;;;;;;;;;17.91;41.42;98474.81;10202813;28;1731;-71
2024/03/01 00:35:28;;;;;;;;;;;;;;;17.88;41.75;98475.84;10202727;28;857;-71
2024/03/01 00:40:24;;;;;;;;;;;;;;;17.87;41.50;98476.81;10202916;28;846;-71
2024/03/01 00:45:20;;;;;;;;;;;;;;;17.86;41.64;98469.81;10201838;28;1898;-71
2024/03/01 00:50:16;;;;;;;;;;;;;;;17.86;41.78;98458.44;10202376;28;859;-71
2024/03/01 00:55:12;;;;;;;;;;;;;;;17.86;41.59;98458.44;10201899;28;952;-71
2024/03/01 01:00:08;;;;;;;;;;;;;;;17.85;41.67;98454.13;10202078;28;1008;-71
2024/03/01 01:05:05;;;;;;;;;;;;;;;17.84;41.68;98449.78;10201163;28;1952;-71
2024/03/01 01:10:01;;;;;;;;;;;;;;;17.83;41.46;98450.75;10201304;28;850;-71
2024/03/01 01:14:57;;;;;;;;;;;;;;;17.82;41.46;98446.41;10201895;28;830;-71
2024/03/01 01:19:52;;;;;;;;;;;;;;;17.82;41.62;98441.16;10200847;28;866;-71
2024/03/01 01:24:48;;;;;;;;;;;;;;;17.81;41.70;98434.16;10201522;28;1949;-71
2024/03/01 01:29:44;;;;;;;;;;;;;;;17.80;41.46;98420.16;10200552;28;1233;-71
2024/03/01 01:34:40;;;;;;;;;;;;;;;17.80;41.56;98414.03;10200284;28;947;-70
2024/03/01 01:39:36;;;;;;;;;;;;;;;17.78;41.51;98414.09;10200377;28;893;-70
2024/03/01 01:44:32;;;;;;;;;;;;;;;17.78;41.40;98407.97;10200036;28;1977;-71
2024/03/01 01:49:28;;;;;;;;;;;;;;;17.76;41.51;98400.16;10199963;28;956;-71
2024/03/01 01:54:24;;;;;;;;;;;;;;;17.77;41.51;98414.22;10199200;28;893;-71
2024/03/01 01:59:19;;;;;;;;;;;;;;;17.75;41.50;98409.88;10199090;28;859;-71
2024/03/01 02:04:15;;;;;;;;;;;;;;;17.75;41.35;98387.94;10199908;28;1953;-71
2024/03/01 02:09:17;;;;;;;;;;;;;;;17.74;41.44;98381.00;10199979;28;954;-71
2024/03/01 02:14:13;;;;;;;;;;;;;;;17.74;41.43;98370.44;10199267;28;839;-71
2024/03/01 02:19:09;;;;;;;;;;;;;;;17.72;41.68;98361.78;10199658;28;841;-71
2024/03/01 02:24:05;;;;;;;;;;;;;;;17.72;41.51;98357.34;10197893;28;788;-71
2024/03/01 02:29:01;;;;;;;;;;;;;;;17.72;41.58;98364.44;10198655;28;1882;-71
2024/03/01 02:33:57;;;;;;;;;;;;;;;17.71;41.43;98353.03;10198209;28;1078;-71
2024/03/01 02:38:53;;;;;;;;;;;;;;;17.70;41.59;98339.97;10197858;28;778;-71
2024/03/01 02:43:49;;;;;;;;;;;;;;;17.68;41.41;98350.63;10198969;28;869;-71
2024/03/01 02:48:45;;;;;;;;;;;;;;;17.69;41.26;98344.38;10198758;28;2016;-71
2024/03/01 02:53:40;;;;;;;;;;;;;;;17.68;41.43;98350.63;10198656;28;877;-71
2024/03/01 02:58:36;;;;;;;;;;;;;;;17.67;41.43;98342.78;10198558;28;936;-71
2024/03/01 03:03:32;;;;;;;;;;;;;;;17.66;41.42;98347.22;10197846;28;937;-71
2024/03/01 03:08:28;;;;;;;;;;;;;;;17.65;41.61;98342.88;10197569;28;1894;-71
2024/03/01 03:13:24;;;;;;;;;;;;;;;17.66;41.46;98347.22;10197733;28;802;-71
2024/03/01 03:18:20;;;;;;;;;;;;;;;17.63;41.61;98355.34;10197508;28;864;-71
2024/03/01 03:23:16;;;;;;;;;;;;;;;17.64;41.56;98349.13;10198315;28;932;-71
2024/03/01 03:28:13;;;;;;;;;;;;;;;17.63;41.56;98352.69;10197445;28;1969;-71
2024/03/01 03:33:09;;;;;;;;;;;;;;;17.63;41.30;98352.69;10198159;28;1248;-71
2024/03/01 03:38:05;;;;;;;;;;;;;;;17.64;41.52;98353.53;10204479;28;984;-71
2024/03/01 03:43:01;;;;;;;;;;;;;;;17.64;41.70;98353.53;10204509;28;882;-71
2024/03/01 03:47:57;;;;;;;;;;;;;;;17.62;41.66;98345.72;10203115;28;1922;-71
2024/03/01 03:52:53;;;;;;;;;;;;;;;17.62;41.62;98345.72;10203491;28;893;-71
2024/03/01 03:57:49;;;;;;;;;;;;;;;17.63;41.57;98344.78;10202819;28;1001;-71
2024/03/01 04:02:45;;;;;;;;;;;;;;;17.62;41.45;98344.88;10203326;28;798;-71
2024/03/01 04:07:41;;;;;;;;;;;;;;;17.62;41.65;98347.53;10202947;28;1955;-71
2024/03/01 04:12:36;;;;;;;;;;;;;;;17.62;41.75;98350.16;10203589;28;948;-71
2024/03/01 04:17:32;;;;;;;;;;;;;;;17.62;41.63;98344.88;10203452;28;996;-71
2024/03/01 04:22:28;;;;;;;;;;;;;;;17.62;41.72;98350.16;10203843;28;940;-71
2024/03/01 04:27:24;;;;;;;;;;;;;;;17.62;41.56;98360.69;10203271;28;1907;-71
2024/03/01 04:32:20;;;;;;;;;;;;;;;17.61;41.64;98354.59;10203014;28;1088;-71
2024/03/01 04:37:16;;;;;;;;;;;;;;;17.61;41.72;98351.94;10202362;28;817;-71
2024/03/01 04:42:12;;;;;;;;;;;;;;;17.60;41.70;98342.34;10202828;28;940;-71
2024/03/01 04:47:08;;;;;;;;;;;;;;;17.61;41.63;98349.31;10201188;28;1981;-71
2024/03/01 04:52:04;;;;;;;;;;;;;;;17.61;41.52;98344.03;10201746;28;1101;-71
2024/03/01 04:57:00;;;;;;;;;;;;;;;17.63;41.68;98333.38;10201663;28;825;-71
2024/03/01 05:01:56;;;;;;;;;;;;;;;17.63;41.56;98336.91;10202077;28;765;-71
2024/03/01 05:06:51;;;;;;;;;;;;;;;17.65;41.77;98339.41;10201374;28;1902;-70
2024/03/01 05:11:47;;;;;;;;;;;;;;;17.65;41.83;98331.50;10201813;28;853;-71
2024/03/01 05:16:43;;;;;;;;;;;;;;;17.66;41.74;98341.97;10201592;28;930;-71
2024/03/01 05:21:39;;;;;;;;;;;;;;;17.68;41.84;98328.66;10200893;28;837;-71
2024/03/01 05:26:35;;;;;;;;;;;;;;;17.68;41.66;98337.44;10201239;28;1902;-71
2024/03/01 05:31:31;;;;;;;;;;;;;;;17.69;41.81;98341.75;10201385;28;1053;-71
2024/03/01 05:36:27;;;;;;;;;;;;;;;17.71;41.88;98357.44;10201487;28;901;-71
2024/03/01 05:41:23;;;;;;;;;;;;;;;17.70;41.57;98353.13;10200923;28;949;-71
2024/03/01 05:46:21;;;;;;;;;;;;;;;17.72;41.54;98362.63;10200793;28;1969;-71
2024/03/01 05:51:17;;;;;;;;;;;;;;;17.73;41.79;98361.69;10199826;28;897;-71
2024/03/01 05:56:17;;;;;;;;;;;;;;;17.73;41.71;98361.69;10199692;28;864;-71
2024/03/01 06:01:15;;;;;;;;;;;;;;;17.74;41.78;98371.28;10199575;28;960;-70
2024/03/01 06:06:14;;;;;;;;;;;;;;;17.76;41.68;98376.44;10198826;28;1947;-72
2024/03/01 06:11:10;;;;;;;;;;;;;;;17.77;41.69;98382.59;10199325;28;875;-71
2024/03/01 06:16:06;;;;;;;;;;;;;;;17.77;41.69;98393.13;10199336;28;821;-71
2024/03/01 06:21:02;;;;;;;;;;;;;;;17.78;41.76;98384.25;10199054;28;873;-71
2024/03/01 06:25:58;;;;;;;;;;;;;;;17.79;41.78;98391.22;10198869;28;1902;-70
2024/03/01 06:30:54;;;;;;;;;;;;;;;17.79;41.66;98397.38;10198284;28;1278;-71
2024/03/01 06:35:50;;;;;;;;;;;;;;;17.80;41.63;98400.88;10199162;28;952;-71
2024/03/01 06:40:46;;;;;;;;;;;;;;;17.81;41.88;98397.28;10199255;28;921;-70
2024/03/01 06:45:42;;;;;;;;;;;;;;;17.81;41.87;98399.91;10198233;28;1969;-70
2024/03/01 06:50:38;;;;;;;;;;;;;;;17.82;41.66;98414.78;10198776;28;830;-71
2024/03/01 06:55:33;;;;;;;;;;;;;;;17.82;41.82;98418.28;10197505;28;951;-71
2024/03/01 07:00:31;;;;;;;;;;;;;;;17.83;41.86;98424.38;10198504;28;838;-71
2024/03/01 07:05:27;;;;;;;;;;;;;;;17.83;42.01;98437.56;10197677;28;1898;-71
2024/03/01 07:10:23;;;;;;;;;;;;;;;17.82;41.92;98442.00;10202029;28;849;-70
2024/03/01 07:15:19;;;;;;;;;;;;;;;17.81;42.15;98447.34;10204814;28;779;-71
2024/03/01 07:20:15;;;;;;;;;;;;;;;17.81;42.00;98455.25;10205192;28;880;-71
2024/03/01 07:25:11;;;;;;;;;;;;;;;17.78;42.12;98464.16;10204415;28;1898;-71
2024/03/01 07:30:06;;;;;;;;;;;;;;;17.78;42.10;98468.59;10204354;28;1108;-71
2024/03/01 07:35:05;;;;;;;;;;;;;;;17.77;42.06;98461.66;10204173;28;779;-71
2024/03/01 07:40:04;;;;;;;;;;;;;;;17.75;42.03;98462.56;10204594;28;880;-71
2024/03/01 07:45:00;;;;;;;;;;;;;;;17.75;42.10;98473.13;10204444;28;1922;-70
2024/03/01 07:49:56;;;;;;;;;;;;;;;17.75;42.04;98469.63;10203682;28;941;-70
2024/03/01 07:54:52;;;;;;;;;;;;;;;17.76;42.21;98479.22;10203617;28;932;-70
2024/03/01 07:59:48;;;;;;;;;;;;;;;17.74;42.14;98468.81;10203479;28;797;-70
2024/03/01 08:04:44;;;;;;;;;;;;;;;17.76;42.20;98460.78;10203192;28;1902;-69
2024/03/01 08:09:40;;;;;;;;;;;;;;;17.75;41.85;98467.84;10204103;28;838;-69
2024/03/01 08:14:36;;;;;;;;;;;;;;;17.77;42.00;98474.81;10202902;28;984;-71
2024/03/01 08:19:32;;;;;;;;;;;;;;;17.77;42.02;98467.75;10201650;28;984;-70
2024/03/01 08:24:28;;;;;;;;;;;;;;;17.77;41.95;98469.56;10201904;28;822;-70
2024/03/01 08:29:24;;;;;;;;;;;;;;;17.79;41.81;98475.56;10202566;28;1293;-70
2024/03/01 08:34:20;;;;;;;;;;;;;;;17.80;41.91;98469.38;10202947;28;915;-70
2024/03/01 08:39:16;;;;;;;;;;;;;;;17.81;42.06;98486.88;10201559;28;1043;-70
2024/03/01 08:44:11;;;;;;;;;;;;;;;17.81;41.93;98494.78;10202646;28;761;-70
2024/03/01 08:49:07;;;;;;;;;;;;;;;17.80;42.00;98495.75;10201260;28;1914;-70
2024/03/01 08:54:05;;;;;;;;;;;;;;;17.80;41.77;98491.31;10201992;28;893;-70
2024/03/01 08:59:02;;;;;;;;;;;;;;;17.81;41.86;98498.25;10202257;28;765;-70
2024/03/01 09:03:58;;;;;;;;;;;;;;;17.81;41.74;98507.97;10202007;28;916;-70
2024/03/01 09:08:54;;;;;;;;;;;;;;;17.81;42.01;98521.16;10201247;28;1902;-70
2024/03/01 09:13:50;;;;;;;;;;;;;;;17.82;41.74;98522.84;10201785;28;850;-70
2024/03/01 09:18:47;;;;;;;;;;;;;;;17.83;42.02;98529.81;10201021;28;936;-70
2024/03/01 09:23:42;;;;;;;;;;;;;;;17.82;41.89;98520.22;10200728;28;999;-73
2024/03/01 09:28:38;;;;;;;;;;;;;;;17.82;41.82;98525.50;10200223;28;1963;-70
2024/03/01 09:33:34;;;;;;;;;;;;;;;17.82;41.83;98528.97;10200089;28;810;-71
2024/03/01 09:38:30;;;;;;;;;;;;;;;17.83;42.08;98532.44;10201017;28;802;-70
2024/03/01 09:43:26;;;;;;;;;;;;;;;17.83;41.98;98529.81;10199926;28;1070;-70
2024/03/01 09:48:22;;;;;;;;;;;;;;;17.83;42.03;98538.56;10199960;28;1910;-73
2024/03/01 09:53:18;;;;;;;;;;;;;;;17.83;41.86;98537.72;10199928;28;833;-70
2024/03/01 09:58:14;;;;;;;;;;;;;;;17.83;42.12;98537.72;10199789;28;965;-70
2024/03/01 10:03:10;;;;;;;;;;;;;;;17.83;42.19;98551.75;10199608;28;757;-70
2024/03/01 10:08:08;;;;;;;;;;;;;;;17.83;42.20;98553.53;10199910;28;1894;-70
2024/03/01 10:13:03;;;;;;;;;;;;;;;17.83;42.12;98553.53;10200435;28;901;-70
2024/03/01 10:17:59;;;;;;;;;;;;;;;17.84;42.12;98566.63;10199199;28;897;-70
2024/03/01 10:22:55;;;;;;;;;;;;;;;17.83;42.08;98588.63;10199136;28;910;-70
2024/03/01 10:27:51;;;;;;;;;;;;;;;17.83;42.21;98579.91;10198731;28;1949;-71
2024/03/01 10:32:47;;;;;;;;;;;;;;;17.83;42.02;98579.91;10197993;28;1171;-71
2024/03/01 10:37:43;;;;;;;;;;;;;;;17.84;41.96;98584.22;10198592;28;829;-75
2024/03/01 10:42:43;;;;;;;;;;;;;;;17.82;41.94;98584.31;10197526;28;775;-75
2024/03/01 10:47:39;;;;;;;;;;;;;;;17.84;41.89;98557.84;10198390;28;1918;-75
2024/03/01 10:52:35;;;;;;;;;;;;;;;17.85;41.84;98546.38;10197501;28;893;-71
2024/03/01 10:57:31;;;;;;;;;;;;;;;17.85;41.86;98546.38;10198597;28;778;-71
2024/03/01 11:02:26;;;;;;;;;;;;;;;17.86;41.83;98564.72;10197857;28;923;-71
2024/03/01 11:07:22;;;;;;;;;;;;;;;17.86;41.92;98551.53;10197703;28;1898;-71
2024/03/01 11:12:18;;;;;;;;;;;;;;;17.86;42.00;98555.97;10198240;28;861;-72
2024/03/01 11:17:14;;;;;;;;;;;;;;;17.86;42.04;98546.28;10197681;28;918;-71
2024/03/01 11:22:10;;;;;;;;;;;;;;;17.87;42.11;98553.25;10198063;28;758;-74
2024/03/01 11:27:06;;;;;;;;;;;;;;;17.87;42.06;98555.06;10197619;28;1961;-71
2024/03/01 11:32:04;;;;;;;;;;;;;;;17.90;42.02;98536.41;10197147;28;1474;-71
2024/03/01 11:37:01;;;;;;;;;;;;;;;17.94;42.02;98529.97;10197044;28;969;-71
2024/03/01 11:41:57;;;;;;;;;;;;;;;17.95;41.94;98524.63;10196926;28;968;-71
2024/03/01 11:46:54;;;;;;;;;;;;;;;17.96;42.09;98518.38;10196816;28;2091;-71
2024/03/01 11:51:50;;;;;;;;;;;;;;;17.99;41.91;98513.88;10196746;28;980;-71
2024/03/01 11:56:46;;;;;;;;;;;;;;;18.00;42.11;98519.06;10201559;28;777;-69
2024/03/01 12:01:41;;;;;;;;;;;;;;;18.02;41.85;98511.03;10202162;28;896;-70
2024/03/01 12:06:37;;;;;;;;;;;;;;;18.04;41.91;98507.34;10202844;28;1969;-71
2024/03/01 12:11:35;;;;;;;;;;;;;;;18.06;41.89;98497.56;10203159;28;850;-70
2024/03/01 12:16:34;;;;;;;;;;;;;;;18.07;42.13;98498.41;10202909;28;890;-70
2024/03/01 12:21:30;;;;;;;;;;;;;;;18.08;42.13;98492.19;10202773;28;881;-70
2024/03/01 12:26:26;;;;;;;;;;;;;;;18.11;41.87;98492.00;10202627;28;1965;-74
2024/03/01 12:31:22;;;;;;;;;;;;;;;18.11;41.72;98484.94;10203183;28;1104;-74
2024/03/01 12:36:18;;;;;;;;;;;;;;;18.13;41.95;98488.31;10203005;28;785;-74
2024/03/01 12:41:14;;;;;;;;;;;;;;;18.14;41.85;98475.97;10202088;28;885;-75
2024/03/01 12:46:10;;;;;;;;;;;;;;;18.16;41.84;98482.00;10201850;28;1911;-72
2024/03/01 12:51:08;;;;;;;;;;;;;;;18.17;41.65;98471.34;10201873;28;783;-71
2024/03/01 12:56:04;;;;;;;;;;;;;;;18.23;41.65;98456.91;10202781;28;830;-72
2024/03/01 13:01:00;;;;;;;;;;;;;;;18.26;41.86;98455.84;10201567;28;976;-70
2024/03/01 13:05:56;;;;;;;;;;;;;;;18.28;41.75;98444.25;10200682;28;1890;-70
2024/03/01 13:10:52;;;;;;;;;;;;;;;18.30;41.65;98442.38;10201272;28;784;-76
2024/03/01 13:15:48;;;;;;;;;;;;;;;18.32;41.75;98458.09;10201755;28;949;-71
2024/03/01 13:20:44;;;;;;;;;;;;;;;18.36;41.62;98447.22;10201632;28;765;-70
2024/03/01 13:25:41;;;;;;;;;;;;;;;18.35;41.60;98447.34;10200719;28;1894;-70
2024/03/01 13:30:37;;;;;;;;;;;;;;;18.39;41.48;98443.53;10201524;28;1264;-70
2024/03/01 13:35:32;;;;;;;;;;;;;;;18.48;41.59;98440.31;10200559;28;794;-70
2024/03/01 13:40:28;;;;;;;;;;;;;;;18.53;41.40;98422.38;10200964;28;765;-70
2024/03/01 13:45:24;;;;;;;;;;;;;;;18.58;41.38;98436.09;10200139;28;1906;-71
2024/03/01 13:50:21;;;;;;;;;;;;;;;18.59;41.24;98439.56;10200477;28;886;-70
2024/03/01 13:55:17;;;;;;;;;;;;;;;18.69;41.25;98437.19;10200262;28;905;-70
2024/03/01 14:00:25;;;;;;;;;;;;;;;18.77;41.31;98437.53;10199448;28;865;-70
2024/03/01 14:05:21;;;;;;;;;;;;;;;18.79;41.08;98438.28;10199267;28;1898;-70
2024/03/01 14:10:21;;;;;;;;;;;;;;;18.80;41.20;98434.66;10199376;28;899;-70
2024/03/01 14:15:17;;;;;;;;;;;;;;;18.86;41.25;98430.75;10199037;28;865;-70
2024/03/01 14:20:13;;;;;;;;;;;;;;;18.90;41.15;98425.16;10198872;28;843;-70
2024/03/01 14:25:12;;;;;;;;;;;;;;;18.97;41.07;98438.81;10199251;28;1898;-70
2024/03/01 14:30:12;;;;;;;;;;;;;;;19.03;41.01;98425.16;10198188;28;1282;-69
2024/03/01 14:35:08;;;;;;;;;;;;;;;19.03;41.08;98433.94;10198988;28;845;-70
2024/03/01 14:40:04;;;;;;;;;;;;;;;19.03;41.03;98441.00;10198234;28;854;-70
2024/03/01 14:45:00;;;;;;;;;;;;;;;18.97;41.32;98430.88;10198666;28;1970;-70
2024/03/01 14:49:56;;;;;;;;;;;;;;;19.02;41.30;98429.63;10198024;28;901;-70
2024/03/01 14:54:51;;;;;;;;;;;;;;;19.05;41.18;98431.19;10198455;28;1108;-70
2024/03/01 14:59:47;;;;;;;;;;;;;;;19.01;41.28;98437.63;10198458;28;970;-70
2024/03/01 15:04:43;;;;;;;;;;;;;;;18.92;41.29;98431.19;10197670;28;1953;-70
2024/03/01 15:09:39;;;;;;;;;;;;;;;18.90;41.20;98429.63;10198108;28;830;-70
2024/03/01 15:14:35;;;;;;;;;;;;;;;18.85;41.30;98421.16;10197468;28;753;-70
2024/03/01 15:19:31;;;;;;;;;;;;;;;18.83;41.53;98413.34;10197343;28;829;-72
2024/03/01 15:24:27;;;;;;;;;;;;;;;18.83;41.60;98400.13;10197755;28;802;-70
2024/03/01 15:29:23;;;;;;;;;;;;;;;18.84;41.41;98393.94;10198081;28;1959;-71
2024/03/01 15:34:18;;;;;;;;;;;;;;;18.85;41.34;98394.75;10203405;28;976;-74
2024/03/01 15:39:15;;;;;;;;;;;;;;;18.97;41.16;98404.47;10203316;28;821;-77
2024/03/01 15:44:11;;;;;;;;;;;;;;;18.99;41.10;98397.28;10203632;28;992;-70
2024/03/01 15:49:07;;;;;;;;;;;;;;;18.96;41.19;98398.34;10204181;28;1969;-71
2024/03/01 15:54:03;;;;;;;;;;;;;;;18.99;41.18;98390.22;10204217;28;934;-70
2024/03/01 15:58:58;;;;;;;;;;;;;;;18.91;41.11;98389.03;10202747;28;831;-71
2024/03/01 16:03:54;;;;;;;;;;;;;;;18.82;41.25;98390.53;10204264;28;783;-71
2024/03/01 16:08:51;;;;;;;;;;;;;;;18.80;41.36;98393.28;10203036;28;1918;-71
2024/03/01 16:13:47;;;;;;;;;;;;;;;18.77;41.38;98390.00;10203799;28;939;-71
2024/03/01 16:18:42;;;;;;;;;;;;;;;18.76;41.54;98393.63;10203231;28;877;-71
2024/03/01 16:23:38;;;;;;;;;;;;;;;18.70;41.46;98405.38;10203100;28;929;-71
2024/03/01 16:28:35;;;;;;;;;;;;;;;18.67;41.48;98402.13;10203079;28;1947;-71
2024/03/01 16:33:31;;;;;;;;;;;;;;;18.65;41.41;98410.13;10201979;28;1274;-71
2024/03/01 16:38:26;;;;;;;;;;;;;;;18.63;41.58;98417.31;10201516;28;838;-71
2024/03/01 16:43:22;;;;;;;;;;;;;;;18.60;41.39;98423.66;10200615;28;977;-71
2024/03/01 16:48:18;;;;;;;;;;;;;;;18.58;41.52;98420.25;10202304;28;1970;-71
2024/03/01 16:53:14;;;;;;;;;;;;;;;18.56;41.67;98423.97;10201653;28;795;-71
2024/03/01 16:58:10;;;;;;;;;;;;;;;18.52;41.74;98420.69;10201492;28;851;-71
2024/03/01 17:03:08;;;;;;;;;;;;;;;18.50;41.68;98406.75;10201893;28;787;-71
2024/03/01 17:08:03;;;;;;;;;;;;;;;18.48;41.92;98424.47;10201087;28;1902;-71
2024/03/01 17:12:59;;;;;;;;;;;;;;;18.47;41.88;98406.09;10201725;28;912;-72
2024/03/01 17:17:55;;;;;;;;;;;;;;;18.46;41.96;98415.81;10200837;28;854;-72
2024/03/01 17:22:51;;;;;;;;;;;;;;;18.46;41.85;98405.25;10200160;28;1250;-73
2024/03/01 17:27:48;;;;;;;;;;;;;;;18.44;41.94;98393.94;10200725;28;1969;-71
2024/03/01 17:32:44;;;;;;;;;;;;;;;18.44;42.07;98390.47;10200869;28;1120;-72
2024/03/01 17:37:40;;;;;;;;;;;;;;;18.42;41.90;98387.97;10201130;28;857;-71
2024/03/01 17:42:36;;;;;;;;;;;;;;;18.44;42.14;98390.47;10200100;28;1183;-71
2024/03/01 17:47:32;;;;;;;;;;;;;;;18.43;42.02;98387.00;10199892;28;1968;-71
2024/03/01 17:52:28;;;;;;;;;;;;;;;18.44;42.24;98369.38;10199431;28;848;-71
2024/03/01 17:57:23;;;;;;;;;;;;;;;18.43;42.17;98352.69;10200261;28;795;-72
2024/03/01 18:02:19;;;;;;;;;;;;;;;18.44;42.12;98342.97;10199438;28;1440;-72
2024/03/01 18:07:15;;;;;;;;;;;;;;;18.44;42.08;98346.47;10199919;28;1894;-72
2024/03/01 18:12:11;;;;;;;;;;;;;;;18.45;42.06;98371.91;10199724;28;822;-72
2024/03/01 18:17:07;;;;;;;;;;;;;;;18.46;42.22;98389.44;10199001;28;933;-72
2024/03/01 18:22:03;;;;;;;;;;;;;;;18.46;42.18;98392.06;10198232;28;1027;-73
2024/03/01 18:26:59;;;;;;;;;;;;;;;18.46;42.13;98397.34;10198678;28;1898;-72
2024/03/01 18:31:55;;;;;;;;;;;;;;;18.47;42.08;98384.97;10198618;28;1491;-72
2024/03/01 18:36:51;;;;;;;;;;;;;;;18.48;42.06;98386.69;10198349;28;857;-73
2024/03/01 18:41:47;;;;;;;;;;;;;;;18.48;42.14;98378.78;10198286;28;1006;-73
2024/03/01 18:46:44;;;;;;;;;;;;;;;18.49;42.11;98388.38;10198148;28;1910;-72
2024/03/01 18:51:40;;;;;;;;;;;;;;;18.49;42.17;98386.56;10197961;28;866;-73
2024/03/01 18:56:36;;;;;;;;;;;;;;;18.49;42.06;98383.94;10197905;28;754;-72
2024/03/01 19:01:32;;;;;;;;;;;;;;;18.50;42.07;98384.81;10198372;28;876;-72
2024/03/01 19:06:28;;;;;;;;;;;;;;;18.51;42.15;98391.75;10196671;28;1895;-72
2024/03/01 19:11:25;;;;;;;;;;;;;;;18.52;42.17;98385.53;10197416;28;952;-72
2024/03/01 19:16:21;;;;;;;;;;;;;;;18.50;42.09;98380.38;10197385;28;992;-72
2024/03/01 19:21:16;;;;;;;;;;;;;;;18.52;42.04;98385.53;10196702;28;1040;-73
2024/03/01 19:26:12;;;;;;;;;;;;;;;18.53;42.15;98389.88;10198202;28;1894;-72
2024/03/01 19:31:08;;;;;;;;;;;;;;;18.52;42.02;98386.38;10197570;28;1093;-72
2024/03/01 19:36:05;;;;;;;;;;;;;;;18.53;42.21;98382.78;10197508;28;846;-72
2024/03/01 19:41:00;;;;;;;;;;;;;;;18.54;42.14;98391.53;10197445;28;787;-72
2024/03/01 19:45:56;;;;;;;;;;;;;;;18.54;42.18;98381.00;10196651;28;1988;-72
2024/03/01 19:50:52;;;;;;;;;;;;;;;18.54;42.10;98370.44;10197221;28;925;-72
2024/03/01 19:55:48;;;;;;;;;;;;;;;18.54;42.15;98379.19;10196497;28;818;-72
2024/03/01 20:00:44;;;;;;;;;;;;;;;18.56;42.12;98387.84;10196993;28;761;-72
2024/03/01 20:05:41;;;;;;;;;;;;;;;18.56;42.21;98387.84;10196185;28;1950;-72
2024/03/01 20:10:37;;;;;;;;;;;;;;;18.56;42.26;98382.56;10197005;28;862;-72
2024/03/01 20:15:33;;;;;;;;;;;;;;;18.57;42.25;98384.25;10197957;28;814;-72
2024/03/01 20:20:29;;;;;;;;;;;;;;;18.57;42.16;98368.41;10203040;28;968;-72
2024/03/01 20:25:25;;;;;;;;;;;;;;;18.57;42.35;98355.22;10203105;28;1886;-72
2024/03/01 20:30:21;;;;;;;;;;;;;;;18.58;42.14;98362.22;10202557;28;1338;-72
2024/03/01 20:35:17;;;;;;;;;;;;;;;18.57;42.26;98371.06;10201656;28;1008;-72
2024/03/01 20:40:13;;;;;;;;;;;;;;;18.58;42.30;98361.38;10202025;28;1032;-72
2024/03/01 20:45:09;;;;;;;;;;;;;;;18.57;42.14;98359.66;10202424;28;1914;-71
2024/03/01 20:50:05;;;;;;;;;;;;;;;18.54;42.16;98355.44;10201800;28;885;-72
2024/03/01 20:55:03;;;;;;;;;;;;;;;18.55;42.15;98357.16;10202259;28;896;-72
2024/03/01 20:59:59;;;;;;;;;;;;;;;18.54;42.09;98336.97;10201386;28;874;-71
2024/03/01 21:04:55;;;;;;;;;;;;;;;18.53;42.30;98337.94;10201930;28;849;-72
2024/03/01 21:09:51;;;;;;;;;;;;;;;18.52;42.16;98341.53;10201226;28;844;-72
2024/03/01 21:14:47;;;;;;;;;;;;;;;18.52;42.22;98338.03;10201088;28;894;-72
2024/03/01 21:19:42;;;;;;;;;;;;;;;18.51;42.23;98339.81;10201562;28;880;-72
2024/03/01 21:24:38;;;;;;;;;;;;;;;18.51;42.25;98339.81;10200748;28;818;-72
2024/03/01 21:29:34;;;;;;;;;;;;;;;18.50;42.26;98337.31;10199589;28;1882;-72
2024/03/01 21:34:30;;;;;;;;;;;;;;;18.49;42.21;98331.16;10200487;28;790;-72
2024/03/01 21:39:26;;;;;;;;;;;;;;;18.47;42.20;98330.44;10200080;28;889;-72
2024/03/01 21:44:22;;;;;;;;;;;;;;;18.47;42.02;98321.66;10200090;28;925;-72
2024/03/01 21:49:18;;;;;;;;;;;;;;;18.47;42.15;98317.25;10199868;28;1910;-72
2024/03/01 21:54:14;;;;;;;;;;;;;;;18.46;42.21;98310.28;10199758;28;897;-74
2024/03/01 21:59:10;;;;;;;;;;;;;;;18.45;42.03;98313.88;10199833;28;892;-72
2024/03/01 22:04:06;;;;;;;;;;;;;;;18.44;42.10;98306.06;10199806;28;803;-72
2024/03/01 22:09:03;;;;;;;;;;;;;;;18.42;42.00;98295.63;10200852;28;1898;-72
2024/03/01 22:13:59;;;;;;;;;;;;;;;18.40;42.02;98303.63;10198947;28;1075;-72
2024/03/01 22:18:56;;;;;;;;;;;;;;;18.38;42.06;98302.03;10199864;28;822;-72
2024/03/01 22:23:52;;;;;;;;;;;;;;;18.37;42.20;98306.47;10199770;28;837;-71
2024/03/01 22:28:47;;;;;;;;;;;;;;;18.35;42.20;98305.72;10198970;28;1895;-71
2024/03/01 22:33:44;;;;;;;;;;;;;;;18.34;42.49;98306.69;10199641;28;850;-72
2024/03/01 22:38:42;;;;;;;;;;;;;;;18.34;42.22;98314.59;10198073;28;948;-72
2024/03/01 22:43:37;;;;;;;;;;;;;;;18.33;42.09;98314.69;10198936;28;809;-72
2024/03/01 22:48:33;;;;;;;;;;;;;;;18.31;42.19;98322.75;10198395;28;1957;-72
2024/03/01 22:53:29;;;;;;;;;;;;;;;18.30;42.28;98317.56;10198346;28;848;-72
2024/03/01 22:58:25;;;;;;;;;;;;;;;18.29;42.20;98313.25;10198151;28;769;-72
2024/03/01 23:03:21;;;;;;;;;;;;;;;18.28;42.36;98322.09;10197478;28;980;-72
2024/03/01 23:08:17;;;;;;;;;;;;;;;18.26;42.49;98330.13;10198095;28;1948;-72
2024/03/01 23:13:13;;;;;;;;;;;;;;;18.25;42.34;98319.66;10197838;28;873;-72
2024/03/01 23:18:09;;;;;;;;;;;;;;;18.23;42.28;98317.13;10198334;28;863;-72
2024/03/01 23:23:04;;;;;;;;;;;;;;;18.22;42.39;98307.53;10197589;28;806;-71
2024/03/01 23:28:01;;;;;;;;;;;;;;;18.21;42.29;98315.53;10197543;28;1898;-72
2024/03/01 23:32:57;;;;;;;;;;;;;;;18.19;42.28;98297.19;10197387;28;1246;-72
2024/03/01 23:37:53;;;;;;;;;;;;;;;18.18;42.33;98291.06;10197189;28;896;-72
2024/03/01 23:42:49;;;;;;;;;;;;;;;18.17;42.23;98286.72;10197186;28;818;-72
2024/03/01 23:47:45;;;;;;;;;;;;;;;18.16;42.42;98274.50;10196932;28;1910;-71
2024/03/01 23:52:41;;;;;;;;;;;;;;;18.16;42.31;98282.41;10201705;28;891;-72
2024/03/01 23:57:37;;;;;;;;;;;;;;;18.16;42.37;98277.16;10203649;28;851;-72
